Portada
METAR-TAF:

METAR-TAF

Aeroports :

Tarawa, Kiribati

latitud: 01-21N, longitud: 172-55E, altitud: 2 m

Observació

L'informe es va fer fa 1 hora i 3 minuts, a les 01:00 UTC
Vent 5 kt del Nord
Temperatura 32°C
Humitat 59%
Pressió 1010 hPa
Visibilitat 10 km o més
Escasses núvols a una alçada de 2000 ft

METAR: NGTA 190100Z 36005KT 9999 FEW020 32/23 Q1010

Hora: 16:03 (02:03 UTC)

Pronòstic

L'informe es va fer fa 3 hores i 9 minuts, a les 22:54 UTC
Pronòstic vàlid del 19 a les 00 UTC al 19 a les 24 UTC
Vent 7 kt del Est/Nord-Est
Visibilitat 10 km o més
Núvols disperses a una alçada de 1900 ft

TAF: NGTA 182254Z 1900/1924 07007KT 9999 SCT019

Observacions i pronòstics meteorològics de més de 4000 aeroports (METAR i TAF).

Les estacions disponibles són els punts grocs i vermells al mapa.

Posi el ratolí al punt desitjat per veure el nom de l'estació.

Feu clic per veure les observacions i els pronòstics meteorològics.

Per canviar el mapa: feu clic els botons verds amb una creu de color negre per apropar; al botó verd amb un guió per allunyar la imatge; o en les fletxes verdes per a mapes adjacents.


METAR-TAF: